Time;durP1;ratioP1;P1;durP2;ratioP2;P2;SDS_P1;SDS_P2;PMS_P1;PMS_P2;Temp;Humidity;BMP_temperature;BMP_pressure;BME280_temperature;BME280_humidity;BME280_pressure;Samples;Min_cycle;Max_cycle;Signal;HPM_P1;HPM_P2
2022/08/09 00:01:00;;;;;;;2.80;0.77;;;27.00;65.50;;;;;;5033191;28;20432;-25
2022/08/09 00:03:25;;;;;;;1.73;0.68;;;27.10;65.50;;;;;;5033253;28;20025;-25
2022/08/09 00:05:51;;;;;;;1.83;0.60;;;27.00;65.50;;;;;;5033021;28;20053;-25
2022/08/09 00:08:17;;;;;;;0.93;0.57;;;27.10;65.50;;;;;;5033075;28;20065;-26
2022/08/09 00:10:42;;;;;;;1.48;0.60;;;27.00;65.50;;;;;;5033550;28;20253;-25
2022/08/09 00:13:09;;;;;;;0.82;0.57;;;27.00;65.50;;;;;;5033231;28;20537;-25
2022/08/09 00:15:34;;;;;;;1.60;0.50;;;27.00;65.50;;;;;;5033007;28;20040;-25
2022/08/09 00:18:00;;;;;;;1.67;0.75;;;27.00;65.50;;;;;;5032775;28;20025;-25
2022/08/09 00:20:26;;;;;;;1.05;0.60;;;27.00;65.50;;;;;;5032633;28;20060;-24
2022/08/09 00:22:52;;;;;;;1.35;0.50;;;27.00;65.50;;;;;;5032804;28;20060;-25
2022/08/09 00:25:17;;;;;;;2.53;0.60;;;27.00;65.50;;;;;;5032731;28;20028;-25
2022/08/09 00:27:43;;;;;;;1.40;0.70;;;27.00;65.50;;;;;;5032693;28;20387;-25
2022/08/09 00:30:09;;;;;;;0.95;0.52;;;27.00;65.50;;;;;;5032544;28;20031;-25
2022/08/09 00:32:35;;;;;;;0.95;0.57;;;27.00;65.50;;;;;;5032687;28;20026;-25
2022/08/09 00:35:02;;;;;;;0.73;0.55;;;27.00;65.50;;;;;;5032399;28;20029;-25
2022/08/09 00:37:27;;;;;;;0.95;0.47;;;27.00;65.50;;;;;;5032726;28;20387;-25
2022/08/09 00:39:53;;;;;;;0.88;0.57;;;27.00;65.50;;;;;;5032374;28;20501;-25
2022/08/09 00:42:19;;;;;;;1.73;0.50;;;27.00;65.50;;;;;;5032377;28;20029;-25
2022/08/09 00:44:44;;;;;;;1.27;0.68;;;27.00;65.50;;;;;;5032442;28;20026;-24
2022/08/09 00:47:10;;;;;;;1.35;0.60;;;27.00;65.50;;;;;;5032267;28;20026;-25
2022/08/09 00:49:35;;;;;;;2.42;0.65;;;26.90;65.40;;;;;;5032251;28;20566;-25
2022/08/09 00:52:02;;;;;;;1.05;0.60;;;26.90;65.50;;;;;;5032465;28;20030;-25
2022/08/09 00:54:28;;;;;;;1.20;0.70;;;26.90;65.50;;;;;;5032433;28;20108;-25
2022/08/09 00:56:53;;;;;;;0.68;0.50;;;26.90;65.50;;;;;;5032505;28;20609;-24
2022/08/09 00:59:19;;;;;;;0.52;0.50;;;26.90;65.50;;;;;;5032088;28;20029;-24
2022/08/09 01:01:47;;;;;;;1.35;0.60;;;26.90;65.60;;;;;;5032665;28;20057;-24
2022/08/09 01:04:25;;;;;;;1.13;0.60;;;26.90;65.50;;;;;;5032146;28;20554;-24
2022/08/09 01:07:08;;;;;;;1.33;0.60;;;26.90;65.50;;;;;;5032577;28;20025;-25
2022/08/09 01:09:54;;;;;;;0.75;0.50;;;26.90;65.50;;;;;;5032118;28;20036;-25
2022/08/09 01:12:41;;;;;;;0.93;0.60;;;26.90;65.60;;;;;;5031870;28;20032;-25
2022/08/09 01:15:11;;;;;;;1.27;0.50;;;26.90;65.50;;;;;;5032026;28;20030;-25
2022/08/09 01:17:50;;;;;;;0.70;0.50;;;26.90;65.50;;;;;;5032230;28;20017;-24
2022/08/09 01:20:39;;;;;;;0.75;0.50;;;26.90;65.60;;;;;;5032061;28;20080;-24
2022/08/09 01:23:11;;;;;;;1.45;0.68;;;26.80;65.60;;;;;;5032360;28;20025;-24
2022/08/09 01:26:17;;;;;;;0.88;0.65;;;26.80;65.50;;;;;;5037609;28;20028;-25
2022/08/09 01:28:47;;;;;;;2.47;0.50;;;26.80;65.60;;;;;;5039230;28;20025;-25
2022/08/09 01:31:20;;;;;;;1.00;0.63;;;26.80;65.60;;;;;;5033408;28;20022;-25
2022/08/09 01:33:47;;;;;;;2.35;0.55;;;26.80;65.60;;;;;;5037155;28;20137;-25
2022/08/09 01:36:19;;;;;;;1.13;0.60;;;26.80;66.40;;;;;;5037540;28;20175;-24
2022/08/09 01:38:48;;;;;;;0.90;0.60;;;26.80;65.60;;;;;;5036341;28;20483;-25
2022/08/09 01:41:21;;;;;;;1.05;0.60;;;26.80;65.70;;;;;;5036587;28;20036;-25
2022/08/09 01:43:50;;;;;;;1.13;0.68;;;26.80;65.60;;;;;;5018551;28;20478;-25
2022/08/09 01:46:23;;;;;;;1.40;0.50;;;26.80;65.60;;;;;;5035892;28;20486;-25
2022/08/09 01:48:51;;;;;;;1.65;0.50;;;26.80;65.70;;;;;;5035806;28;20405;-24
2022/08/09 01:51:20;;;;;;;0.70;0.50;;;26.80;65.60;;;;;;5036235;28;20489;-24
2022/08/09 01:53:47;;;;;;;2.67;0.80;;;26.80;65.70;;;;;;5035827;28;20034;-25
2022/08/09 01:56:13;;;;;;;2.13;0.68;;;26.80;65.70;;;;;;5035982;28;20021;-24
2022/08/09 01:58:41;;;;;;;1.33;0.70;;;26.80;65.70;;;;;;5035362;28;20129;-25
2022/08/09 02:01:07;;;;;;;0.57;0.55;;;26.80;65.70;;;;;;5036199;28;20033;-25
2022/08/09 02:03:35;;;;;;;0.85;0.40;;;26.70;65.70;;;;;;5018165;28;20029;-25
2022/08/09 02:06:03;;;;;;;1.42;0.60;;;26.70;65.70;;;;;;5036127;28;20072;-24
2022/08/09 02:08:31;;;;;;;1.23;0.60;;;26.70;65.70;;;;;;5036018;28;20048;-25
2022/08/09 02:11:01;;;;;;;1.27;0.70;;;26.70;65.70;;;;;;5035739;28;20060;-25
2022/08/09 02:13:29;;;;;;;1.85;0.55;;;26.70;65.70;;;;;;5036055;28;20383;-25
2022/08/09 02:15:56;;;;;;;2.28;0.57;;;26.70;65.70;;;;;;5035342;28;20116;-25
2022/08/09 02:18:24;;;;;;;1.30;0.52;;;26.70;65.70;;;;;;5035416;28;20081;-24
2022/08/09 02:20:54;;;;;;;1.02;0.60;;;26.70;65.70;;;;;;5035068;28;20022;-25
2022/08/09 02:23:28;;;;;;;0.90;0.60;;;26.70;65.70;;;;;;5035072;28;20053;-25
2022/08/09 02:25:56;;;;;;;1.30;0.63;;;26.70;65.70;;;;;;5035503;28;20029;-25
2022/08/09 02:28:37;;;;;;;1.70;0.82;;;26.70;65.70;;;;;;5017459;28;20108;-24
2022/08/09 02:31:25;;;;;;;1.35;0.70;;;26.70;65.70;;;;;;5035028;28;20064;-25
2022/08/09 02:33:55;;;;;;;0.65;0.50;;;26.70;65.70;;;;;;5034970;28;20497;-25
2022/08/09 02:36:33;;;;;;;1.02;0.60;;;26.60;65.60;;;;;;5034966;28;20037;-25
2022/08/09 02:39:04;;;;;;;1.05;0.65;;;26.60;65.60;;;;;;5034731;28;20025;-25
2022/08/09 02:41:49;;;;;;;1.48;0.52;;;26.60;65.60;;;;;;5035108;28;20018;-25
2022/08/09 02:44:19;;;;;;;1.52;0.60;;;26.60;65.60;;;;;;5034102;28;20080;-24
2022/08/09 02:46:50;;;;;;;0.75;0.55;;;26.60;65.60;;;;;;5034994;28;20102;-25
2022/08/09 02:49:18;;;;;;;0.75;0.60;;;26.60;65.60;;;;;;5034515;28;20064;-25
2022/08/09 02:51:49;;;;;;;1.33;0.90;;;26.60;65.60;;;;;;5034504;28;20079;-25
2022/08/09 02:54:16;;;;;;;1.98;0.60;;;26.60;65.60;;;;;;5034796;28;20034;-24
2022/08/09 02:56:46;;;;;;;0.95;0.60;;;26.60;65.60;;;;;;5034634;28;20021;-25
2022/08/09 02:59:13;;;;;;;1.20;0.63;;;26.60;65.60;;;;;;5034479;28;20025;-24
2022/08/09 03:01:41;;;;;;;1.02;0.60;;;26.60;65.60;;;;;;5034403;28;20029;-24
2022/08/09 03:04:09;;;;;;;0.98;0.50;;;26.60;65.70;;;;;;5034535;28;20052;-24
2022/08/09 03:06:35;;;;;;;0.40;0.40;;;26.60;65.70;;;;;;5034377;28;20089;-25
2022/08/09 03:09:02;;;;;;;1.15;0.68;;;26.60;65.70;;;;;;5034503;28;20037;-24
2022/08/09 03:11:29;;;;;;;1.20;0.50;;;26.60;65.70;;;;;;5034281;28;20400;-24
2022/08/09 03:13:55;;;;;;;0.98;0.60;;;26.50;65.60;;;;;;5034328;28;20025;-25
2022/08/09 03:16:22;;;;;;;0.68;0.57;;;26.50;65.70;;;;;;5034113;28;20017;-24
2022/08/09 03:18:48;;;;;;;0.63;0.47;;;26.60;65.70;;;;;;5033870;28;20086;-25
2022/08/09 03:21:19;;;;;;;0.90;0.57;;;26.50;65.60;;;;;;5034421;28;20453;-24
2022/08/09 03:23:45;;;;;;;1.27;0.60;;;26.50;65.60;;;;;;5033863;28;20025;-25
2022/08/09 03:26:20;;;;;;;1.88;0.60;;;26.50;65.70;;;;;;5033988;28;20111;-24
2022/08/09 03:28:49;;;;;;;0.98;0.60;;;26.50;65.70;;;;;;5033750;28;20029;-25
2022/08/09 03:31:15;;;;;;;1.05;0.70;;;26.50;65.70;;;;;;5033658;28;20482;-24
2022/08/09 03:33:42;;;;;;;0.70;0.50;;;26.50;65.70;;;;;;5033841;28;20021;-25
2022/08/09 03:36:09;;;;;;;0.80;0.60;;;26.50;65.60;;;;;;5033617;28;20030;-25
2022/08/09 03:38:36;;;;;;;0.90;0.60;;;26.50;65.70;;;;;;5033409;28;20025;-25
2022/08/09 03:41:02;;;;;;;0.50;0.50;;;26.50;65.70;;;;;;5033605;28;20017;-25
2022/08/09 03:43:28;;;;;;;1.27;0.70;;;26.50;65.70;;;;;;5033538;28;20028;-25
2022/08/09 03:45:54;;;;;;;0.80;0.52;;;26.50;65.70;;;;;;5015725;28;20561;-25
2022/08/09 03:48:23;;;;;;;0.50;0.50;;;26.40;65.70;;;;;;5033211;28;20117;-25
2022/08/09 03:50:52;;;;;;;0.95;0.60;;;26.40;65.70;;;;;;5015404;28;20026;-24
2022/08/09 03:53:19;;;;;;;1.42;0.65;;;26.40;65.60;;;;;;5033343;28;20076;-24
2022/08/09 03:55:46;;;;;;;1.77;0.65;;;26.40;65.60;;;;;;5033022;28;20014;-25
2022/08/09 03:58:12;;;;;;;1.10;0.60;;;26.40;65.60;;;;;;5033353;28;20375;-25
2022/08/09 04:00:38;;;;;;;1.50;0.70;;;26.40;65.60;;;;;;5033077;28;20112;-24
2022/08/09 04:03:05;;;;;;;3.28;0.68;;;26.40;65.60;;;;;;5033211;28;20063;-24
2022/08/09 04:05:31;;;;;;;1.75;0.73;;;26.40;65.60;;;;;;5033126;28;20021;-25
2022/08/09 04:07:57;;;;;;;1.95;0.60;;;26.40;65.70;;;;;;5033016;28;20386;-25
2022/08/09 04:10:24;;;;;;;0.60;0.50;;;26.40;65.70;;;;;;5032869;28;20029;-25
2022/08/09 04:12:51;;;;;;;0.98;0.60;;;26.40;65.60;;;;;;5033060;28;20348;-24
2022/08/09 04:15:20;;;;;;;0.63;0.55;;;26.40;65.70;;;;;;5033431;28;20375;-24
2022/08/09 04:17:45;;;;;;;0.85;0.60;;;26.40;65.70;;;;;;5032808;28;20383;-24
2022/08/09 04:20:13;;;;;;;1.50;0.70;;;26.40;66.50;;;;;;5014860;28;20021;-25
2022/08/09 04:22:39;;;;;;;1.00;0.70;;;26.40;65.70;;;;;;5033018;28;20466;-25
2022/08/09 04:25:06;;;;;;;0.73;0.60;;;26.40;65.80;;;;;;5032887;28;20054;-24
2022/08/09 04:27:32;;;;;;;0.90;0.57;;;26.30;65.70;;;;;;5032614;28;20105;-25
2022/08/09 04:29:58;;;;;;;1.88;0.90;;;26.30;65.70;;;;;;5032446;28;20456;-24
2022/08/09 04:32:27;;;;;;;1.13;0.60;;;26.30;65.70;;;;;;5032498;28;20041;-24
2022/08/09 04:34:53;;;;;;;1.10;0.68;;;26.30;65.70;;;;;;5032668;28;20021;-24
2022/08/09 04:37:19;;;;;;;1.05;0.70;;;26.30;65.80;;;;;;5032533;28;20105;-25
2022/08/09 04:39:44;;;;;;;0.75;0.40;;;26.30;65.80;;;;;;5032452;28;20449;-25
2022/08/09 04:42:10;;;;;;;1.05;0.55;;;26.30;65.80;;;;;;5032396;28;20511;-25
2022/08/09 04:44:36;;;;;;;0.80;0.60;;;26.30;65.90;;;;;;5032333;28;20383;-25
2022/08/09 04:47:02;;;;;;;0.95;0.50;;;26.20;65.80;;;;;;5032083;28;20029;-22
2022/08/09 04:49:32;;;;;;;1.13;0.70;;;26.20;65.80;;;;;;5032376;28;20026;-22
2022/08/09 04:51:58;;;;;;;1.52;0.80;;;26.20;65.90;;;;;;5032653;28;20028;-23
2022/08/09 04:54:24;;;;;;;1.45;0.60;;;26.20;65.90;;;;;;5032427;28;20044;-23
2022/08/09 04:56:49;;;;;;;0.73;0.57;;;26.20;65.90;;;;;;5032482;28;20026;-23
2022/08/09 04:59:15;;;;;;;1.65;0.70;;;26.20;65.90;;;;;;5032523;28;20028;-24
2022/08/09 05:01:41;;;;;;;0.80;0.43;;;26.20;66.00;;;;;;5037585;28;20021;-24
2022/08/09 05:04:06;;;;;;;0.65;0.60;;;26.10;65.90;;;;;;5036963;28;20029;-23
2022/08/09 05:06:32;;;;;;;1.67;0.60;;;26.20;66.00;;;;;;5032425;28;20098;-23
2022/08/09 05:08:57;;;;;;;0.80;0.60;;;26.10;65.90;;;;;;5032334;28;20524;-23
2022/08/09 05:11:26;;;;;;;0.80;0.55;;;26.20;66.00;;;;;;5032110;28;20044;-24
2022/08/09 05:13:52;;;;;;;2.00;0.70;;;26.10;65.90;;;;;;5032066;28;20032;-24
2022/08/09 05:16:18;;;;;;;1.52;0.68;;;26.10;65.90;;;;;;5014625;28;20026;-24
2022/08/09 05:18:44;;;;;;;0.77;0.52;;;26.10;66.00;;;;;;5031840;28;20521;-24
2022/08/09 05:21:09;;;;;;;1.52;0.60;;;26.10;66.00;;;;;;5031884;28;20033;-24
2022/08/09 05:23:35;;;;;;;0.98;0.73;;;26.10;66.00;;;;;;5032058;28;20014;-24
2022/08/09 05:26:01;;;;;;;2.00;0.90;;;26.10;66.00;;;;;;5032043;28;20034;-24
2022/08/09 05:28:27;;;;;;;1.05;0.75;;;26.10;66.00;;;;;;5032224;28;20029;-24
2022/08/09 05:30:52;;;;;;;1.48;0.50;;;26.10;66.10;;;;;;5031887;28;20022;-24
2022/08/09 05:33:18;;;;;;;1.05;0.60;;;26.10;66.00;;;;;;5032133;28;20511;-24
2022/08/09 05:35:44;;;;;;;1.52;0.60;;;26.10;66.10;;;;;;5032034;28;20033;-24
2022/08/09 05:38:10;;;;;;;2.03;0.70;;;26.10;66.00;;;;;;5031984;28;20033;-24
2022/08/09 05:40:36;;;;;;;0.73;0.57;;;26.10;66.10;;;;;;5032376;28;20543;-24
2022/08/09 05:43:01;;;;;;;0.90;0.70;;;26.10;66.00;;;;;;5032135;28;20096;-24
2022/08/09 05:45:28;;;;;;;0.70;0.60;;;26.10;66.10;;;;;;5031864;28;20025;-24
2022/08/09 05:47:54;;;;;;;0.77;0.45;;;26.00;66.10;;;;;;5032269;28;20029;-24
2022/08/09 05:50:24;;;;;;;1.02;0.80;;;26.00;66.30;;;;;;5031880;28;20033;-24
2022/08/09 05:52:51;;;;;;;2.38;0.85;;;26.00;66.10;;;;;;5014388;28;20030;-25
2022/08/09 05:55:17;;;;;;;1.63;0.60;;;26.00;66.10;;;;;;5031834;28;20100;-25
2022/08/09 05:57:43;;;;;;;0.95;0.63;;;26.00;66.10;;;;;;5031439;28;20093;-25
2022/08/09 06:00:09;;;;;;;2.80;0.55;;;26.00;66.10;;;;;;5031891;28;20037;-23
2022/08/09 06:02:35;;;;;;;1.27;0.70;;;26.00;66.10;;;;;;5032563;28;20025;-23
2022/08/09 06:05:01;;;;;;;1.45;0.70;;;26.00;66.10;;;;;;5031629;28;20037;-23
2022/08/09 06:07:28;;;;;;;1.27;0.70;;;26.00;66.10;;;;;;5031649;28;20021;-23
2022/08/09 06:09:54;;;;;;;1.75;0.80;;;26.00;66.20;;;;;;5031378;28;20037;-24
2022/08/09 06:12:20;;;;;;;1.27;0.73;;;26.00;66.20;;;;;;5031550;28;20033;-24
2022/08/09 06:14:46;;;;;;;0.80;0.68;;;26.00;66.20;;;;;;5032653;28;20033;-23
2022/08/09 06:17:12;;;;;;;1.13;0.60;;;26.00;66.30;;;;;;5034503;28;20037;-24
2022/08/09 06:19:38;;;;;;;1.30;0.70;;;26.00;66.30;;;;;;5034948;28;20471;-23
2022/08/09 06:22:04;;;;;;;0.85;0.60;;;26.00;66.30;;;;;;5035082;28;20391;-23
2022/08/09 06:24:30;;;;;;;1.00;0.70;;;26.00;66.30;;;;;;5035093;28;20021;-23
2022/08/09 06:26:55;;;;;;;1.30;0.70;;;26.00;66.40;;;;;;5034875;28;20036;-24
2022/08/09 06:29:21;;;;;;;0.90;0.60;;;26.00;66.40;;;;;;5035348;28;20094;-24
2022/08/09 06:31:47;;;;;;;0.90;0.63;;;26.00;66.50;;;;;;5035329;28;20021;-24
2022/08/09 06:34:12;;;;;;;1.27;0.77;;;26.00;66.50;;;;;;5034969;28;20036;-25
2022/08/09 06:36:38;;;;;;;1.55;0.80;;;26.00;66.50;;;;;;5034987;28;20017;-25
2022/08/09 06:39:04;;;;;;;0.95;0.60;;;26.00;66.50;;;;;;5034738;28;20033;-24
2022/08/09 06:41:29;;;;;;;1.92;0.80;;;26.00;66.60;;;;;;5034900;28;20372;-24
2022/08/09 06:43:55;;;;;;;1.23;0.65;;;26.00;66.60;;;;;;5035402;28;20083;-24
2022/08/09 06:46:21;;;;;;;2.00;0.88;;;26.00;66.60;;;;;;5034883;28;20026;-24
2022/08/09 06:48:46;;;;;;;0.95;0.70;;;26.00;66.70;;;;;;5034901;28;20271;-24
2022/08/09 06:51:12;;;;;;;1.30;0.60;;;26.00;66.70;;;;;;5035096;28;20028;-25
2022/08/09 06:53:38;;;;;;;1.75;0.73;;;26.00;66.70;;;;;;5034865;28;20026;-24
2022/08/09 06:56:06;;;;;;;0.88;0.57;;;26.00;66.70;;;;;;5034564;28;20394;-25
2022/08/09 06:58:32;;;;;;;0.93;0.60;;;26.00;66.70;;;;;;5034324;28;20031;-24
2022/08/09 07:00:57;;;;;;;1.35;0.50;;;26.00;66.70;;;;;;5034598;28;20022;-25
2022/08/09 07:03:23;;;;;;;1.77;0.75;;;26.00;66.90;;;;;;5034452;28;20391;-25
2022/08/09 07:05:49;;;;;;;2.42;0.70;;;26.00;66.80;;;;;;5034555;28;20029;-24
2022/08/09 07:08:15;;;;;;;1.02;0.70;;;26.00;66.90;;;;;;5016566;28;20025;-24
2022/08/09 07:10:42;;;;;;;2.38;0.90;;;26.00;66.90;;;;;;5034080;28;20021;-24
2022/08/09 07:13:08;;;;;;;1.23;0.70;;;26.00;66.90;;;;;;5034267;28;20052;-25
2022/08/09 07:15:34;;;;;;;0.85;0.65;;;26.00;66.90;;;;;;5034465;28;20025;-25
2022/08/09 07:17:59;;;;;;;1.30;0.70;;;26.00;67.00;;;;;;5034205;28;20075;-25
2022/08/09 07:20:25;;;;;;;1.30;0.90;;;26.00;67.10;;;;;;5034040;28;20035;-25
2022/08/09 07:22:52;;;;;;;1.05;0.70;;;26.00;67.00;;;;;;5034254;28;20058;-25
2022/08/09 07:25:18;;;;;;;1.05;0.70;;;26.00;67.10;;;;;;5034122;28;20033;-25
2022/08/09 07:27:44;;;;;;;1.27;0.75;;;26.10;67.10;;;;;;5034425;28;20030;-25
2022/08/09 07:30:13;;;;;;;0.93;0.80;;;26.00;67.10;;;;;;5033301;28;20108;-25
2022/08/09 07:32:40;;;;;;;1.88;0.60;;;26.00;67.10;;;;;;5033961;28;20521;-24
2022/08/09 07:35:09;;;;;;;1.02;0.63;;;26.00;67.10;;;;;;5016097;28;20025;-25
2022/08/09 07:37:35;;;;;;;1.85;0.80;;;26.00;67.20;;;;;;5033943;28;20025;-25
2022/08/09 07:40:01;;;;;;;0.65;0.47;;;26.00;67.20;;;;;;5033392;28;20030;-25
2022/08/09 07:42:27;;;;;;;1.10;0.70;;;26.00;67.20;;;;;;5033629;28;20025;-25
2022/08/09 07:44:53;;;;;;;0.90;0.50;;;26.10;67.30;;;;;;5033872;28;20100;-24
2022/08/09 07:47:20;;;;;;;4.75;0.70;;;26.00;67.30;;;;;;5015744;28;20362;-24
2022/08/09 07:49:46;;;;;;;0.50;0.47;;;26.00;67.30;;;;;;5033438;28;20049;-25
2022/08/09 07:52:11;;;;;;;2.33;0.68;;;26.00;67.30;;;;;;5033392;28;20083;-25
2022/08/09 07:54:37;;;;;;;1.20;0.68;;;26.10;67.40;;;;;;5033457;28;20036;-24
2022/08/09 07:57:03;;;;;;;1.15;0.52;;;26.10;67.40;;;;;;5033702;28;20029;-25
2022/08/09 07:59:29;;;;;;;1.02;0.60;;;26.10;67.40;;;;;;5033174;28;20071;-24
2022/08/09 08:01:55;;;;;;;2.20;0.70;;;26.10;67.40;;;;;;5033339;28;20033;-25
2022/08/09 08:04:21;;;;;;;0.77;0.60;;;26.10;67.40;;;;;;5033224;28;20014;-24
2022/08/09 08:06:47;;;;;;;1.38;0.70;;;26.20;67.50;;;;;;5033152;28;20017;-25
2022/08/09 08:09:13;;;;;;;1.13;0.68;;;26.20;67.40;;;;;;5033444;28;20037;-24
2022/08/09 08:11:39;;;;;;;1.67;0.77;;;26.20;67.40;;;;;;5033124;28;20391;-24
2022/08/09 08:14:05;;;;;;;0.63;0.50;;;26.20;67.40;;;;;;5033299;28;20037;-24
2022/08/09 08:16:31;;;;;;;2.15;0.60;;;26.20;67.40;;;;;;5033148;28;20029;-25
2022/08/09 08:18:57;;;;;;;1.70;0.70;;;26.30;67.40;;;;;;5032601;28;20029;-25
2022/08/09 08:21:23;;;;;;;2.47;0.75;;;26.30;67.50;;;;;;5032889;28;20032;-24
2022/08/09 08:23:50;;;;;;;1.10;0.70;;;26.30;67.40;;;;;;5032912;28;20018;-25
2022/08/09 08:26:15;;;;;;;1.30;0.70;;;26.30;67.30;;;;;;5033049;28;20026;-25
2022/08/09 08:28:41;;;;;;;2.50;0.60;;;26.30;67.40;;;;;;5033842;28;20029;-24
2022/08/09 08:31:07;;;;;;;1.15;0.70;;;26.30;67.40;;;;;;5033209;28;20101;-24
2022/08/09 08:33:33;;;;;;;0.93;0.65;;;26.30;67.40;;;;;;5015166;28;20399;-24
2022/08/09 08:35:58;;;;;;;1.30;0.70;;;26.30;67.40;;;;;;5032892;28;20025;-24
2022/08/09 08:38:24;;;;;;;0.93;0.55;;;26.40;67.40;;;;;;4998339;28;20025;-25
2022/08/09 08:40:52;;;;;;;0.63;0.52;;;26.40;67.40;;;;;;5014014;28;20091;-25
2022/08/09 08:43:18;;;;;;;0.90;0.60;;;26.40;67.40;;;;;;5028288;28;20029;-25
2022/08/09 08:45:50;;;;;;;1.17;0.75;;;26.40;67.40;;;;;;5021291;28;20037;-24
2022/08/09 08:48:16;;;;;;;1.00;0.70;;;26.40;67.40;;;;;;5012952;28;20029;-25
2022/08/09 08:50:44;;;;;;;2.25;0.70;;;26.40;67.40;;;;;;4994628;28;20451;-25
2022/08/09 08:53:11;;;;;;;0.60;0.43;;;26.40;67.50;;;;;;5012506;28;20018;-24
2022/08/09 08:55:37;;;;;;;1.35;0.73;;;26.40;67.50;;;;;;5012465;28;20026;-25
2022/08/09 08:58:03;;;;;;;0.75;0.55;;;26.40;67.50;;;;;;5012579;28;20079;-25
2022/08/09 09:00:30;;;;;;;3.05;0.60;;;26.40;67.60;;;;;;5020123;28;20370;-25
2022/08/09 09:03:00;;;;;;;1.10;0.80;;;26.40;67.60;;;;;;5013372;28;20045;-25
2022/08/09 09:05:26;;;;;;;1.60;0.60;;;26.40;67.60;;;;;;5012217;28;20064;-25
2022/08/09 09:07:52;;;;;;;1.08;0.60;;;26.40;67.60;;;;;;5012273;28;20052;-24
2022/08/09 09:10:20;;;;;;;1.33;0.77;;;26.40;67.50;;;;;;5012089;28;20026;-25
2022/08/09 09:12:48;;;;;;;1.15;0.70;;;26.40;67.60;;;;;;5012325;28;20079;-25
2022/08/09 09:15:14;;;;;;;2.17;0.70;;;26.40;67.50;;;;;;5012132;28;20033;-25
2022/08/09 09:17:40;;;;;;;3.25;0.60;;;26.40;67.60;;;;;;5021411;28;20386;-25
2022/08/09 09:20:11;;;;;;;0.98;0.60;;;26.50;67.70;;;;;;5031287;28;20032;-24
2022/08/09 09:22:53;;;;;;;1.17;0.70;;;26.40;67.60;;;;;;5031922;28;20028;-25
2022/08/09 09:25:40;;;;;;;3.15;0.70;;;26.50;67.70;;;;;;5025458;28;20444;-25
2022/08/09 09:28:08;;;;;;;0.73;0.60;;;26.50;67.70;;;;;;5011982;28;20080;-25
2022/08/09 09:30:50;;;;;;;1.23;0.60;;;26.50;67.70;;;;;;5011802;28;20124;-25
2022/08/09 09:33:15;;;;;;;0.85;0.57;;;26.50;67.60;;;;;;4994514;28;20026;-25
2022/08/09 09:35:56;;;;;;;0.60;0.43;;;26.50;67.60;;;;;;5023711;28;20109;-25
2022/08/09 09:38:22;;;;;;;1.15;0.60;;;26.50;67.50;;;;;;5021476;28;20036;-25
2022/08/09 09:40:48;;;;;;;0.82;0.60;;;26.50;67.50;;;;;;5013716;28;20052;-25
2022/08/09 09:43:20;;;;;;;1.08;0.80;;;26.60;67.60;;;;;;5031715;28;20057;-25
2022/08/09 09:45:51;;;;;;;1.38;0.70;;;26.60;67.50;;;;;;5031124;28;20101;-24
2022/08/09 09:48:18;;;;;;;0.73;0.55;;;26.60;67.50;;;;;;5031480;28;20037;-24
2022/08/09 09:50:46;;;;;;;1.20;0.70;;;26.60;67.50;;;;;;5031397;28;20029;-24
2022/08/09 09:53:18;;;;;;;1.40;0.68;;;26.60;67.40;;;;;;5015840;28;20025;-24
2022/08/09 09:55:59;;;;;;;0.93;0.55;;;26.60;67.40;;;;;;5018035;28;20080;-25
2022/08/09 09:58:46;;;;;;;0.88;0.63;;;26.60;67.40;;;;;;5035640;28;20053;-24
2022/08/09 10:01:20;;;;;;;0.82;0.60;;;26.60;67.30;;;;;;5035009;28;20041;-24
2022/08/09 10:03:47;;;;;;;;;;;26.70;67.40;;;;;;5035959;28;20398;-24
2022/08/09 10:06:13;;;;;;;1.55;0.73;;;26.70;67.40;;;;;;5035927;28;19966;-24
2022/08/09 10:08:42;;;;;;;1.05;0.60;;;26.70;67.40;;;;;;5017315;28;20517;-24
2022/08/09 10:11:23;;;;;;;0.70;0.60;;;26.70;67.40;;;;;;5035263;28;20031;-24
2022/08/09 10:13:50;;;;;;;0.70;0.70;;;26.70;67.40;;;;;;5035335;28;20097;-24
2022/08/09 10:16:29;;;;;;;2.05;0.80;;;26.70;67.30;;;;;;5035175;28;20022;-24
2022/08/09 10:19:01;;;;;;;0.90;0.60;;;26.70;67.30;;;;;;5035128;28;20033;-24
2022/08/09 10:21:27;;;;;;;1.23;0.73;;;26.80;67.40;;;;;;5035160;28;20037;-24
2022/08/09 10:23:55;;;;;;;2.15;0.60;;;26.70;67.20;;;;;;5035517;28;20113;-24
2022/08/09 10:26:22;;;;;;;1.98;0.80;;;26.80;67.40;;;;;;5035080;28;20075;-24
2022/08/09 10:28:49;;;;;;;1.02;0.70;;;26.80;67.30;;;;;;5034808;28;20059;-24
2022/08/09 10:31:15;;;;;;;1.90;0.80;;;26.80;67.40;;;;;;5017481;28;20406;-24
2022/08/09 10:33:41;;;;;;;0.65;0.60;;;26.80;67.30;;;;;;5034927;28;20048;-24
2022/08/09 10:36:10;;;;;;;0.82;0.55;;;26.80;67.30;;;;;;5034997;28;20026;-24
2022/08/09 10:38:37;;;;;;;1.40;0.75;;;26.80;67.20;;;;;;5034669;28;20038;-24
2022/08/09 10:41:03;;;;;;;2.90;0.70;;;26.90;67.30;;;;;;5034674;28;20100;-24
2022/08/09 10:43:29;;;;;;;0.70;0.50;;;26.90;67.20;;;;;;5034785;28;20083;-25
2022/08/09 10:45:59;;;;;;;1.38;0.70;;;26.80;67.20;;;;;;5034778;28;20029;-24
2022/08/09 10:48:34;;;;;;;9.43;1.48;;;26.90;67.30;;;;;;5034639;28;20033;-24
2022/08/09 10:51:08;;;;;;;3.03;0.70;;;26.90;67.30;;;;;;5034562;28;20021;-24
2022/08/09 10:54:04;;;;;;;1.17;0.60;;;26.90;67.30;;;;;;5034609;28;20022;-24
2022/08/09 10:56:33;;;;;;;1.08;0.70;;;26.90;67.20;;;;;;5034577;28;20030;-24
2022/08/09 10:59:02;;;;;;;1.75;0.63;;;26.90;67.20;;;;;;5034257;28;20029;-24
2022/08/09 11:01:30;;;;;;;0.68;0.50;;;27.00;67.30;;;;;;5034491;28;20022;-24
2022/08/09 11:04:11;;;;;;;2.35;0.88;;;27.00;67.30;;;;;;5033714;28;20433;-24
2022/08/09 11:06:38;;;;;;;1.27;0.80;;;27.00;67.30;;;;;;5034473;28;20079;-24
2022/08/09 11:09:05;;;;;;;0.90;0.68;;;27.00;67.20;;;;;;5034117;28;20079;-24
2022/08/09 11:11:53;;;;;;;1.63;0.80;;;27.00;67.20;;;;;;5016444;28;20029;-24
2022/08/09 11:14:37;;;;;;;1.45;0.60;;;27.00;67.20;;;;;;5034247;28;20040;-24
2022/08/09 11:17:25;;;;;;;1.20;0.73;;;27.00;67.20;;;;;;5034157;28;20049;-25
2022/08/09 11:19:55;;;;;;;1.58;0.90;;;27.00;67.20;;;;;;5033929;28;20096;-24
2022/08/09 11:22:48;;;;;;;1.15;0.82;;;27.00;67.20;;;;;;5034205;28;20021;-24
2022/08/09 11:25:32;;;;;;;0.95;0.70;;;27.10;67.20;;;;;;5033891;28;20052;-24
2022/08/09 11:27:58;;;;;;;0.88;0.63;;;27.10;67.30;;;;;;5034231;28;20080;-24
2022/08/09 11:30:26;;;;;;;1.30;0.80;;;27.10;67.20;;;;;;5033747;28;20037;-24
2022/08/09 11:33:11;;;;;;;1.00;0.80;;;27.10;67.20;;;;;;5033856;28;20034;-24
2022/08/09 11:35:44;;;;;;;1.10;0.80;;;27.10;67.20;;;;;;5033849;28;20033;-24
2022/08/09 11:38:25;;;;;;;1.05;0.82;;;27.10;67.10;;;;;;5034078;28;20025;-24
2022/08/09 11:40:51;;;;;;;1.65;0.70;;;27.10;67.10;;;;;;5033720;28;20095;-24
2022/08/09 11:43:47;;;;;;;1.70;0.77;;;27.10;67.10;;;;;;5033741;28;20024;-24
2022/08/09 11:46:13;;;;;;;1.90;0.80;;;27.20;67.20;;;;;;5033825;28;20014;-24
2022/08/09 11:48:58;;;;;;;4.00;0.80;;;27.20;67.10;;;;;;5033612;28;20033;-25
2022/08/09 11:51:24;;;;;;;;;;;27.20;67.10;;;;;;5034305;28;20028;-25
2022/08/09 11:54:17;;;;;;;1.10;0.70;;;27.20;67.00;;;;;;5034222;28;20349;-25
2022/08/09 11:56:43;;;;;;;0.77;0.70;;;27.20;67.00;;;;;;5031288;28;20034;-25
2022/08/09 11:59:10;;;;;;;0.90;0.70;;;27.20;67.00;;;;;;5033672;28;20025;-25
2022/08/09 12:01:41;;;;;;;0.98;0.60;;;27.20;66.90;;;;;;5033325;28;20018;-25
2022/08/09 12:04:10;;;;;;;2.00;0.75;;;27.20;67.00;;;;;;5033235;28;20100;-25
2022/08/09 12:06:37;;;;;;;1.00;0.70;;;27.20;66.90;;;;;;5033562;28;20075;-25
2022/08/09 12:09:10;;;;;;;1.20;0.70;;;27.20;66.80;;;;;;5033234;28;20416;-25
2022/08/09 12:11:36;;;;;;;1.13;0.77;;;27.30;66.90;;;;;;5015432;28;20026;-25
2022/08/09 12:14:10;;;;;;;2.25;0.60;;;27.30;66.80;;;;;;5033004;28;20078;-25
2022/08/09 12:16:37;;;;;;;1.30;0.80;;;27.30;66.90;;;;;;5014962;28;20029;-25
2022/08/09 12:19:05;;;;;;;1.25;0.77;;;27.30;66.90;;;;;;5032506;28;20116;-25
2022/08/09 12:21:32;;;;;;;1.38;0.98;;;27.30;66.90;;;;;;5033156;28;20025;-25
2022/08/09 12:24:03;;;;;;;1.70;0.90;;;27.30;66.80;;;;;;5032887;28;20028;-25
2022/08/09 12:26:46;;;;;;;4.45;0.95;;;27.30;66.80;;;;;;5031402;28;20550;-25
2022/08/09 12:29:16;;;;;;;4.88;1.13;;;27.40;61.10;;;;;;5032657;28;20026;-25
2022/08/09 12:31:44;;;;;;;2.67;1.10;;;27.40;61.10;;;;;;5032452;28;20025;-25
2022/08/09 12:34:10;;;;;;;1.60;0.77;;;27.50;61.80;;;;;;5032596;28;20075;-25
2022/08/09 12:36:52;;;;;;;3.08;1.00;;;27.50;62.30;;;;;;5032600;28;20033;-25
2022/08/09 12:39:18;;;;;;;4.28;1.10;;;27.50;62.80;;;;;;5032314;28;20068;-25
2022/08/09 12:41:44;;;;;;;2.92;1.15;;;27.40;63.00;;;;;;5032366;28;20067;-25
2022/08/09 12:44:10;;;;;;;2.30;1.02;;;27.40;63.20;;;;;;5032328;28;20030;-25
2022/08/09 12:46:43;;;;;;;3.28;1.20;;;27.50;63.60;;;;;;5032292;28;20501;-25
2022/08/09 12:49:10;;;;;;;1.17;1.00;;;27.50;63.70;;;;;;5032211;28;20037;-25
2022/08/09 12:51:36;;;;;;;1.25;0.80;;;27.50;63.80;;;;;;5032267;28;20032;-25
2022/08/09 12:54:04;;;;;;;1.63;1.00;;;27.40;63.90;;;;;;5032480;28;20466;-25
2022/08/09 12:56:30;;;;;;;1.73;0.93;;;27.40;64.00;;;;;;5032263;28;20105;-25